Time;durP1;ratioP1;P1;durP2;ratioP2;P2;SDS_P1;SDS_P2;PMS_P1;PMS_P2;Temp;Humidity;BMP_temperature;BMP_pressure;BME280_temperature;BME280_humidity;BME280_pressure;Samples;Min_cycle;Max_cycle;Signal;HPM_P1;HPM_P2
2022/03/16 00:00:37;;;;;;;25.17;14.27;;;3.80;99.90;;;;;;5070370;28;20669;-80
2022/03/16 00:03:06;;;;;;;22.57;13.30;;;3.80;99.90;;;;;;5069633;28;20236;-81
2022/03/16 00:05:32;;;;;;;20.00;13.10;;;3.70;99.90;;;;;;5069797;28;20781;-81
2022/03/16 00:08:00;;;;;;;22.63;13.00;;;3.70;99.90;;;;;;5070483;28;20237;-81
2022/03/16 00:10:27;;;;;;;25.90;13.07;;;3.60;99.90;;;;;;5069803;28;20309;-81
2022/03/16 00:12:54;;;;;;;26.93;15.27;;;3.70;99.90;;;;;;5070515;28;20244;-81
2022/03/16 00:15:21;;;;;;;29.77;15.83;;;3.60;99.90;;;;;;5069028;28;20237;-81
2022/03/16 00:17:47;;;;;;;17.93;11.37;;;3.50;99.90;;;;;;5070345;28;20239;-80
2022/03/16 00:20:14;;;;;;;20.70;12.40;;;3.50;99.90;;;;;;5069213;28;20332;-81
2022/03/16 00:22:42;;;;;;;26.10;13.30;;;3.50;99.90;;;;;;5072068;28;20233;-81
2022/03/16 00:25:10;;;;;;;27.43;14.53;;;3.50;99.90;;;;;;5071068;28;20236;-80
2022/03/16 00:27:37;;;;;;;25.57;13.83;;;3.40;99.90;;;;;;5071893;28;20962;-81
2022/03/16 00:30:05;;;;;;;24.80;14.30;;;3.40;99.90;;;;;;5069942;28;20715;-80
2022/03/16 00:32:31;;;;;;;24.50;14.33;;;3.40;99.90;;;;;;5071538;28;20817;-81
2022/03/16 00:34:58;;;;;;;23.40;13.20;;;3.40;99.90;;;;;;5070634;28;20329;-81
2022/03/16 00:37:25;;;;;;;24.77;15.70;;;3.40;99.90;;;;;;5071745;28;20238;-81
2022/03/16 00:39:51;;;;;;;23.47;13.23;;;3.40;99.90;;;;;;5070540;28;20231;-80
2022/03/16 00:42:20;;;;;;;19.10;12.13;;;3.40;99.90;;;;;;5071363;28;20259;-80
2022/03/16 00:44:46;;;;;;;21.33;13.00;;;3.40;99.90;;;;;;5071054;28;20569;-80
2022/03/16 00:47:13;;;;;;;30.20;15.47;;;3.40;99.90;;;;;;5069549;28;20569;-80
2022/03/16 00:49:40;;;;;;;26.47;14.77;;;3.40;99.90;;;;;;5070761;28;20705;-80
2022/03/16 00:52:07;;;;;;;30.67;14.97;;;3.40;99.90;;;;;;5069938;28;20254;-80
2022/03/16 00:54:34;;;;;;;25.80;14.23;;;3.40;99.90;;;;;;5070105;28;20351;-81
2022/03/16 00:57:02;;;;;;;22.23;12.70;;;3.40;99.90;;;;;;5069398;28;20308;-81
2022/03/16 00:59:30;;;;;;;22.70;12.53;;;3.40;99.90;;;;;;5069433;28;20228;-81
2022/03/16 01:01:58;;;;;;;27.57;13.83;;;3.50;99.90;;;;;;5069656;28;20233;-81
2022/03/16 01:04:24;;;;;;;19.00;12.03;;;3.50;99.90;;;;;;5068024;28;20548;-80
2022/03/16 01:06:53;;;;;;;19.87;12.37;;;3.50;99.90;;;;;;5070445;28;20546;-80
2022/03/16 01:09:20;;;;;;;17.07;11.00;;;3.50;99.90;;;;;;5066890;28;20241;-80
2022/03/16 01:11:46;;;;;;;22.93;13.27;;;3.50;99.90;;;;;;5068559;28;20239;-78
2022/03/16 01:14:13;;;;;;;22.10;12.40;;;3.60;99.90;;;;;;5069090;28;20230;-81
2022/03/16 01:16:42;;;;;;;22.97;13.50;;;3.60;99.90;;;;;;5069381;28;20253;-80
2022/03/16 01:19:09;;;;;;;25.60;14.43;;;3.60;99.90;;;;;;5068611;28;20322;-80
2022/03/16 01:21:36;;;;;;;23.93;14.07;;;3.60;99.90;;;;;;5069361;28;20236;-81
2022/03/16 01:24:02;;;;;;;28.97;15.40;;;3.70;99.90;;;;;;5068927;28;20234;-80
2022/03/16 01:26:29;;;;;;;22.07;13.60;;;3.70;99.90;;;;;;5070204;28;20232;-81
2022/03/16 01:28:56;;;;;;;27.90;13.70;;;3.70;99.90;;;;;;5070875;28;20650;-82
2022/03/16 01:31:23;;;;;;;24.10;13.70;;;3.70;99.90;;;;;;5069073;28;20234;-82
2022/03/16 01:33:51;;;;;;;37.90;14.53;;;3.70;99.90;;;;;;5070679;28;20292;-82
2022/03/16 01:36:18;;;;;;;22.00;13.47;;;3.70;99.90;;;;;;5073421;28;20255;-82
2022/03/16 01:38:45;;;;;;;20.83;12.40;;;3.80;99.90;;;;;;5072968;28;20225;-82
2022/03/16 01:41:13;;;;;;;26.07;13.67;;;3.80;99.90;;;;;;5069978;28;20234;-82
2022/03/16 01:43:39;;;;;;;20.20;13.30;;;3.80;99.90;;;;;;5072209;28;20695;-82
2022/03/16 01:46:06;;;;;;;24.67;13.67;;;3.80;99.90;;;;;;5071118;28;20227;-82
2022/03/16 01:48:33;;;;;;;21.47;13.37;;;3.90;99.90;;;;;;5070790;28;20315;-82
2022/03/16 01:51:01;;;;;;;20.73;13.17;;;3.90;99.90;;;;;;5072118;28;20237;-82
2022/03/16 01:53:28;;;;;;;23.27;13.40;;;3.90;99.90;;;;;;5071026;28;20630;-81
2022/03/16 01:55:55;;;;;;;21.53;12.73;;;4.00;99.90;;;;;;5070454;28;20297;-82
2022/03/16 01:58:22;;;;;;;26.07;14.20;;;4.00;99.90;;;;;;5069525;28;20306;-82
2022/03/16 02:00:49;;;;;;;28.13;14.67;;;4.00;99.90;;;;;;5085676;28;20224;-81
2022/03/16 02:03:16;;;;;;;23.90;12.80;;;4.10;99.90;;;;;;5081420;28;20229;-81
2022/03/16 02:05:43;;;;;;;24.30;14.30;;;4.10;99.90;;;;;;5067928;28;20841;-81
2022/03/16 02:08:11;;;;;;;29.60;14.73;;;4.20;99.90;;;;;;5069768;28;21026;-81
2022/03/16 02:10:40;;;;;;;27.47;14.90;;;4.20;99.90;;;;;;5069543;28;20238;-81
2022/03/16 02:13:08;;;;;;;32.43;15.43;;;4.30;99.90;;;;;;5069524;28;20255;-81
2022/03/16 02:15:35;;;;;;;23.33;15.47;;;4.30;99.90;;;;;;5068211;28;20232;-80
2022/03/16 02:18:02;;;;;;;26.70;14.50;;;4.30;99.90;;;;;;5069538;28;20229;-81
2022/03/16 02:20:28;;;;;;;24.87;13.90;;;4.30;99.90;;;;;;5067972;28;20237;-81
2022/03/16 02:22:58;;;;;;;24.70;13.97;;;4.40;99.90;;;;;;5069808;28;20229;-80
2022/03/16 02:25:27;;;;;;;26.57;14.73;;;4.40;99.90;;;;;;5061886;28;20238;-80
2022/03/16 02:27:54;;;;;;;27.90;14.77;;;4.40;99.90;;;;;;5068410;28;20233;-80
2022/03/16 02:30:21;;;;;;;27.73;15.30;;;4.40;99.90;;;;;;5067798;28;20239;-81
2022/03/16 02:32:48;;;;;;;28.07;15.30;;;4.40;99.90;;;;;;5069601;28;20255;-81
2022/03/16 02:35:15;;;;;;;21.70;12.87;;;4.50;99.90;;;;;;5069177;28;20224;-81
2022/03/16 02:37:42;;;;;;;21.40;12.90;;;4.50;99.90;;;;;;5069175;28;20989;-80
2022/03/16 02:40:12;;;;;;;26.83;14.93;;;4.50;99.90;;;;;;5067207;28;20224;-81
2022/03/16 02:42:39;;;;;;;22.10;13.97;;;4.50;99.90;;;;;;5067287;28;20242;-79
2022/03/16 02:45:06;;;;;;;24.50;13.90;;;4.50;99.90;;;;;;5068819;28;20288;-81
2022/03/16 02:47:34;;;;;;;22.20;12.80;;;4.50;99.90;;;;;;5070549;28;20223;-81
2022/03/16 02:50:00;;;;;;;19.37;11.53;;;4.50;99.90;;;;;;5069645;28;20225;-80
2022/03/16 02:52:27;;;;;;;20.73;11.63;;;4.50;99.90;;;;;;5068244;28;20660;-80
2022/03/16 02:54:54;;;;;;;29.57;14.60;;;4.50;99.90;;;;;;5069877;28;20247;-81
2022/03/16 02:57:22;;;;;;;27.47;14.97;;;4.50;99.90;;;;;;5070113;28;20248;-81
2022/03/16 02:59:48;;;;;;;33.50;16.13;;;4.50;99.90;;;;;;5068304;28;20223;-80
2022/03/16 03:02:15;;;;;;;31.27;16.00;;;4.50;99.90;;;;;;5067754;28;20243;-80
2022/03/16 03:04:42;;;;;;;32.70;15.57;;;4.50;99.90;;;;;;5068693;28;20252;-81
2022/03/16 03:07:09;;;;;;;27.70;15.57;;;4.50;99.90;;;;;;5067558;28;20230;-80
2022/03/16 03:09:36;;;;;;;28.57;15.70;;;4.50;99.90;;;;;;5066443;28;20715;-79
2022/03/16 03:12:03;;;;;;;30.63;14.70;;;4.50;99.90;;;;;;5068958;28;20319;-79
2022/03/16 03:14:32;;;;;;;27.73;14.47;;;4.40;99.90;;;;;;5068043;28;20234;-80
2022/03/16 03:16:59;;;;;;;30.13;14.57;;;4.40;99.90;;;;;;5069109;28;20315;-79
2022/03/16 03:19:26;;;;;;;33.33;16.70;;;4.30;99.90;;;;;;5066604;28;20240;-79
2022/03/16 03:21:53;;;;;;;27.17;14.57;;;4.30;99.90;;;;;;5070637;28;20226;-79
2022/03/16 03:24:19;;;;;;;31.43;15.63;;;4.20;99.90;;;;;;5067931;28;20239;-79
2022/03/16 03:26:46;;;;;;;29.77;15.70;;;4.10;99.90;;;;;;5070110;28;20279;-79
2022/03/16 03:29:14;;;;;;;27.73;15.30;;;4.10;99.90;;;;;;5067207;28;20233;-79
2022/03/16 03:31:42;;;;;;;33.23;15.57;;;4.00;99.90;;;;;;5068170;28;20217;-79
2022/03/16 03:34:09;;;;;;;26.87;14.77;;;4.00;99.90;;;;;;5060190;28;20826;-79
2022/03/16 03:36:36;;;;;;;32.17;16.03;;;3.90;99.90;;;;;;5048327;28;20319;-79
2022/03/16 03:39:03;;;;;;;31.40;15.67;;;3.90;99.90;;;;;;5061392;28;20234;-79
2022/03/16 03:41:29;;;;;;;30.60;15.57;;;3.80;99.90;;;;;;5067584;28;20232;-79
2022/03/16 03:43:56;;;;;;;34.03;15.30;;;3.70;99.90;;;;;;5067508;28;20220;-79
2022/03/16 03:46:23;;;;;;;37.03;15.97;;;3.70;99.90;;;;;;5067424;28;20835;-79
2022/03/16 03:48:51;;;;;;;32.33;15.63;;;3.60;99.90;;;;;;5067911;28;20233;-79
2022/03/16 03:51:18;;;;;;;33.27;16.33;;;3.60;99.90;;;;;;5070256;28;20229;-80
2022/03/16 03:53:44;;;;;;;33.63;16.27;;;3.50;99.90;;;;;;5071457;28;20318;-80
2022/03/16 03:56:11;;;;;;;29.00;14.37;;;3.50;99.90;;;;;;5071080;28;20236;-80
2022/03/16 03:58:38;;;;;;;27.70;12.17;;;3.40;99.90;;;;;;5070338;28;20239;-80
2022/03/16 04:01:06;;;;;;;29.13;14.73;;;3.40;99.90;;;;;;5064096;28;20255;-80
2022/03/16 04:03:32;;;;;;;28.93;14.70;;;3.30;99.90;;;;;;5051674;28;20320;-80
2022/03/16 04:06:01;;;;;;;32.97;16.03;;;3.30;99.90;;;;;;5050336;28;20226;-79
2022/03/16 04:08:28;;;;;;;30.80;15.53;;;3.20;99.90;;;;;;5067928;28;20252;-80
2022/03/16 04:10:55;;;;;;;32.43;15.37;;;3.10;99.90;;;;;;5069659;28;20224;-79
2022/03/16 04:13:21;;;;;;;27.97;15.80;;;3.00;99.90;;;;;;5069129;28;20231;-80
2022/03/16 04:15:48;;;;;;;37.27;16.83;;;3.00;99.90;;;;;;5070052;28;20692;-79
2022/03/16 04:18:15;;;;;;;34.27;16.57;;;3.00;99.90;;;;;;5071563;28;20240;-79
2022/03/16 04:20:41;;;;;;;34.13;16.80;;;2.90;99.90;;;;;;5071705;28;20239;-79
2022/03/16 04:23:10;;;;;;;30.83;15.57;;;2.90;99.90;;;;;;5069266;28;20845;-80
2022/03/16 04:25:36;;;;;;;34.47;16.87;;;2.90;99.90;;;;;;5069313;28;20229;-79
2022/03/16 04:28:03;;;;;;;33.67;17.27;;;2.90;99.90;;;;;;5069661;28;20247;-79
2022/03/16 04:30:30;;;;;;;28.50;15.13;;;2.90;99.90;;;;;;5069518;28;20342;-80
2022/03/16 04:32:57;;;;;;;28.53;14.93;;;2.90;99.90;;;;;;5069684;28;20226;-80
2022/03/16 04:35:23;;;;;;;33.87;17.10;;;2.80;99.90;;;;;;5070025;28;20278;-80
2022/03/16 04:37:50;;;;;;;35.47;16.57;;;2.80;99.90;;;;;;5069998;28;20243;-80
2022/03/16 04:40:18;;;;;;;37.37;16.93;;;2.80;99.90;;;;;;5071091;28;20236;-80
2022/03/16 04:42:45;;;;;;;37.20;16.90;;;2.80;99.90;;;;;;5072386;28;20223;-80
2022/03/16 04:45:12;;;;;;;33.57;16.00;;;2.80;99.90;;;;;;5070377;28;20253;-79
2022/03/16 04:47:39;;;;;;;33.23;16.20;;;2.80;99.90;;;;;;5071244;28;20233;-80
2022/03/16 04:50:07;;;;;;;40.50;17.33;;;2.80;99.90;;;;;;5070422;28;20235;-80
2022/03/16 04:52:43;;;;;;;32.83;17.47;;;2.80;99.90;;;;;;5070241;28;20240;-79
2022/03/16 04:55:10;;;;;;;36.53;16.33;;;2.80;99.90;;;;;;5067503;28;20269;-79
2022/03/16 04:57:38;;;;;;;35.40;17.70;;;2.70;99.90;;;;;;5070435;28;20229;-80
2022/03/16 05:00:06;;;;;;;37.37;16.83;;;2.70;99.90;;;;;;5068457;28;20697;-79
2022/03/16 05:02:35;;;;;;;35.83;16.97;;;2.70;99.90;;;;;;5067817;28;20317;-79
2022/03/16 05:05:01;;;;;;;35.83;17.63;;;2.70;99.90;;;;;;5069422;28;20234;-79
2022/03/16 05:07:29;;;;;;;35.87;17.13;;;2.70;99.90;;;;;;5070159;28;20285;-79
2022/03/16 05:09:55;;;;;;;35.37;16.90;;;2.60;99.90;;;;;;5068817;28;20247;-80
2022/03/16 05:12:22;;;;;;;38.40;17.43;;;2.70;99.90;;;;;;5070651;28;20242;-79
2022/03/16 05:14:50;;;;;;;38.07;17.53;;;2.60;99.90;;;;;;5067396;28;20291;-79
2022/03/16 05:17:17;;;;;;;33.57;17.43;;;2.60;99.90;;;;;;5069199;28;20689;-80
2022/03/16 05:19:43;;;;;;;39.47;18.27;;;2.60;99.90;;;;;;5070597;28;20420;-80
2022/03/16 05:22:10;;;;;;;33.63;17.63;;;2.60;99.90;;;;;;5071428;28;20223;-81
2022/03/16 05:24:37;;;;;;;35.03;16.90;;;2.60;99.90;;;;;;5070840;28;20817;-80
2022/03/16 05:27:04;;;;;;;33.10;17.53;;;2.50;99.90;;;;;;5065860;28;20276;-80
2022/03/16 05:29:31;;;;;;;32.30;16.43;;;2.50;99.90;;;;;;5081982;28;20233;-80
2022/03/16 05:32:00;;;;;;;34.20;17.50;;;2.50;99.90;;;;;;5064485;28;20238;-81
2022/03/16 05:34:26;;;;;;;32.37;17.23;;;2.50;99.90;;;;;;5066636;28;20306;-78
2022/03/16 05:36:53;;;;;;;32.67;15.40;;;2.50;99.90;;;;;;5066664;28;20233;-80
2022/03/16 05:39:19;;;;;;;30.57;15.97;;;2.40;99.90;;;;;;5062335;28;20225;-80
2022/03/16 05:41:46;;;;;;;32.57;16.23;;;2.40;99.90;;;;;;5061497;28;20232;-80
2022/03/16 05:44:13;;;;;;;31.43;15.83;;;2.40;99.90;;;;;;5057721;28;20228;-79
2022/03/16 05:46:39;;;;;;;50.03;15.73;;;2.40;99.90;;;;;;5064766;28;20235;-80
2022/03/16 05:49:07;;;;;;;27.03;15.30;;;2.40;99.90;;;;;;5066067;28;20227;-80
2022/03/16 05:51:34;;;;;;;34.73;16.67;;;2.40;99.90;;;;;;5066710;28;20600;-78
2022/03/16 05:54:01;;;;;;;45.97;17.97;;;2.30;99.90;;;;;;5060205;28;20286;-78
2022/03/16 05:56:27;;;;;;;34.83;17.97;;;2.30;99.90;;;;;;5072773;28;20308;-79
2022/03/16 05:58:54;;;;;;;62.40;19.97;;;2.30;99.90;;;;;;5063440;28;20238;-79
2022/03/16 06:01:21;;;;;;;30.60;18.17;;;2.30;99.90;;;;;;5068938;28;20239;-79
2022/03/16 06:03:47;;;;;;;29.77;16.83;;;2.40;99.90;;;;;;5068549;28;20235;-79
2022/03/16 06:06:16;;;;;;;36.67;17.27;;;2.40;99.90;;;;;;5069143;28;20230;-79
2022/03/16 06:08:44;;;;;;;26.57;15.80;;;2.50;99.90;;;;;;5065705;28;20223;-78
2022/03/16 06:11:10;;;;;;;31.43;16.43;;;2.60;99.90;;;;;;5066397;28;20568;-77
2022/03/16 06:13:37;;;;;;;29.90;16.17;;;2.70;99.90;;;;;;5065909;28;20221;-80
2022/03/16 06:16:04;;;;;;;31.33;17.73;;;2.80;99.90;;;;;;5063622;28;20275;-79
2022/03/16 06:18:31;;;;;;;31.80;15.90;;;2.90;99.90;;;;;;5063821;28;20223;-80
2022/03/16 06:20:58;;;;;;;30.47;16.20;;;3.10;99.90;;;;;;5066731;28;20224;-79
2022/03/16 06:23:26;;;;;;;25.80;15.13;;;3.20;99.90;;;;;;5064000;28;20613;-78
2022/03/16 06:25:52;;;;;;;26.93;16.00;;;3.30;99.90;;;;;;5066101;28;20870;-79
2022/03/16 06:28:19;;;;;;;29.93;15.97;;;3.40;99.90;;;;;;5063917;28;20231;-78
2022/03/16 06:30:46;;;;;;;27.90;15.13;;;3.50;99.90;;;;;;5065166;28;20232;-78
2022/03/16 06:33:13;;;;;;;27.27;15.73;;;3.60;99.90;;;;;;5064996;28;20577;-78
2022/03/16 06:35:39;;;;;;;26.53;14.60;;;3.60;99.90;;;;;;5065524;28;20232;-78
2022/03/16 06:38:06;;;;;;;30.97;15.93;;;3.70;99.90;;;;;;5065106;28;20563;-78
2022/03/16 06:40:34;;;;;;;27.57;16.13;;;3.70;99.90;;;;;;5065468;28;20258;-78
2022/03/16 06:43:01;;;;;;;26.60;14.00;;;3.80;99.90;;;;;;5065915;28;20518;-78
2022/03/16 06:45:30;;;;;;;27.83;15.23;;;3.90;99.90;;;;;;5065361;28;20230;-78
2022/03/16 06:47:57;;;;;;;28.40;16.30;;;3.90;99.90;;;;;;5065877;28;20234;-78
2022/03/16 06:50:24;;;;;;;23.00;14.77;;;4.00;99.90;;;;;;5063431;28;20762;-78
2022/03/16 06:52:51;;;;;;;24.53;15.13;;;4.10;99.90;;;;;;5064444;28;20234;-78
2022/03/16 06:55:18;;;;;;;28.13;15.70;;;4.20;99.90;;;;;;5067249;28;20226;-78
2022/03/16 06:57:46;;;;;;;26.83;15.63;;;4.40;99.90;;;;;;5065279;28;20230;-79
2022/03/16 07:00:14;;;;;;;24.10;15.57;;;4.60;99.90;;;;;;5069187;28;20230;-78
2022/03/16 07:02:56;;;;;;;28.13;15.87;;;4.70;99.90;;;;;;5068378;28;20324;-78
2022/03/16 07:05:27;;;;;;;26.77;15.83;;;4.90;99.90;;;;;;5068030;28;20321;-78
2022/03/16 07:07:55;;;;;;;26.13;14.23;;;5.20;99.90;;;;;;5069869;28;20221;-78
2022/03/16 07:10:22;;;;;;;24.97;14.40;;;5.40;99.90;;;;;;5067707;28;20231;-79
2022/03/16 07:12:50;;;;;;;20.77;13.43;;;5.70;99.90;;;;;;5069569;28;20237;-79
2022/03/16 07:15:20;;;;;;;25.03;14.03;;;5.90;99.90;;;;;;5061010;28;20223;-80
2022/03/16 07:17:47;;;;;;;21.80;14.23;;;6.10;99.90;;;;;;5071498;28;20234;-79
2022/03/16 07:20:14;;;;;;;20.50;13.40;;;6.20;99.90;;;;;;5072463;28;20830;-79
2022/03/16 07:22:41;;;;;;;19.73;14.27;;;6.40;99.90;;;;;;5072540;28;20240;-79
2022/03/16 07:25:10;;;;;;;20.63;12.53;;;6.40;99.90;;;;;;5073498;28;20230;-79
2022/03/16 07:27:38;;;;;;;21.07;14.27;;;6.60;99.90;;;;;;5070643;28;20234;-79
2022/03/16 07:30:08;;;;;;;21.50;12.37;;;6.60;99.90;;;;;;5067075;28;20218;-79
2022/03/16 07:32:39;;;;;;;18.83;12.10;;;6.70;99.90;;;;;;5076159;28;20678;-79
2022/03/16 07:35:06;;;;;;;21.33;12.57;;;6.70;99.90;;;;;;5073167;28;20257;-79
2022/03/16 07:37:34;;;;;;;20.57;11.87;;;6.80;99.90;;;;;;5073306;28;20710;-79
2022/03/16 07:40:03;;;;;;;22.53;12.30;;;6.90;99.90;;;;;;5069762;28;20226;-79
2022/03/16 07:42:30;;;;;;;18.63;11.40;;;6.90;99.90;;;;;;5070683;28;20234;-78
2022/03/16 07:44:56;;;;;;;20.70;12.60;;;7.00;99.90;;;;;;5068659;28;20601;-79
2022/03/16 07:47:25;;;;;;;17.53;11.10;;;7.00;99.90;;;;;;5070261;28;20226;-79
2022/03/16 07:49:52;;;;;;;16.43;11.50;;;7.10;99.90;;;;;;5070278;28;20691;-79
2022/03/16 07:52:20;;;;;;;18.80;11.80;;;7.10;99.90;;;;;;5077766;28;20556;-79
2022/03/16 07:54:46;;;;;;;17.43;11.07;;;7.10;99.90;;;;;;5069020;28;20223;-79
2022/03/16 07:57:13;;;;;;;20.87;12.17;;;7.20;99.90;;;;;;5070366;28;20220;-79
2022/03/16 07:59:40;;;;;;;17.93;11.30;;;7.20;99.90;;;;;;5070951;28;20247;-78
2022/03/16 08:02:07;;;;;;;19.33;11.10;;;7.20;99.90;;;;;;5071252;28;20251;-79
2022/03/16 08:04:35;;;;;;;16.47;11.30;;;7.20;99.90;;;;;;5070562;28;20238;-79
2022/03/16 08:07:02;;;;;;;17.07;11.77;;;7.20;99.90;;;;;;5070620;28;20218;-79
2022/03/16 08:09:28;;;;;;;16.27;11.70;;;7.20;99.90;;;;;;5075159;28;20240;-79
2022/03/16 08:11:55;;;;;;;17.53;10.50;;;7.20;99.90;;;;;;5080656;28;20742;-79
2022/03/16 08:14:22;;;;;;;16.37;11.10;;;7.20;99.90;;;;;;5070978;28;20237;-79
2022/03/16 08:16:48;;;;;;;17.83;11.10;;;7.20;99.90;;;;;;5079853;28;20236;-78
2022/03/16 08:19:15;;;;;;;17.83;11.13;;;7.20;99.90;;;;;;5066388;28;20321;-79
2022/03/16 08:21:43;;;;;;;19.43;11.37;;;7.30;99.90;;;;;;5076349;28;20233;-79
2022/03/16 08:24:10;;;;;;;16.87;11.23;;;7.40;99.90;;;;;;5074772;28;20228;-79
2022/03/16 08:26:37;;;;;;;19.37;12.50;;;7.50;99.90;;;;;;5072495;28;20230;-79
2022/03/16 08:29:03;;;;;;;19.00;12.47;;;7.60;99.90;;;;;;5081284;28;20222;-79
2022/03/16 08:31:30;;;;;;;18.40;12.77;;;7.80;99.90;;;;;;5076973;28;20567;-79
2022/03/16 08:33:57;;;;;;;18.67;13.77;;;8.00;99.90;;;;;;5079835;28;20227;-79
2022/03/16 08:36:23;;;;;;;18.37;12.87;;;8.10;99.90;;;;;;5076941;28;20234;-79
2022/03/16 08:38:51;;;;;;;17.67;12.53;;;8.30;99.90;;;;;;5075263;28;20240;-79
2022/03/16 08:41:18;;;;;;;20.17;11.83;;;8.40;99.90;;;;;;5077322;28;20724;-80
2022/03/16 08:43:45;;;;;;;16.77;11.30;;;8.50;99.90;;;;;;5072066;28;20233;-79
2022/03/16 08:46:12;;;;;;;18.17;12.63;;;8.60;99.90;;;;;;5060255;28;20253;-79
2022/03/16 08:48:39;;;;;;;17.40;12.17;;;8.70;99.90;;;;;;5072387;28;20304;-79
2022/03/16 08:51:07;;;;;;;18.17;12.63;;;8.90;99.90;;;;;;5066493;28;20705;-80
2022/03/16 08:53:34;;;;;;;17.13;12.27;;;9.10;99.90;;;;;;5068141;28;20226;-79
2022/03/16 08:56:03;;;;;;;16.03;11.37;;;9.20;99.90;;;;;;5071675;28;20310;-79
2022/03/16 08:58:30;;;;;;;14.50;10.73;;;9.40;99.90;;;;;;5068968;28;20310;-79
2022/03/16 09:00:57;;;;;;;16.20;11.07;;;9.60;99.90;;;;;;5067429;28;20292;-79
2022/03/16 09:03:23;;;;;;;13.70;10.63;;;9.90;99.90;;;;;;5071517;28;20300;-79
2022/03/16 09:05:52;;;;;;;19.73;10.70;;;10.10;99.90;;;;;;5069472;28;20231;-79
2022/03/16 09:08:19;;;;;;;14.67;10.23;;;10.20;99.90;;;;;;5071142;28;20280;-79
2022/03/16 09:10:47;;;;;;;16.57;11.13;;;10.30;99.90;;;;;;5068779;28;20237;-79
2022/03/16 09:13:16;;;;;;;15.33;11.40;;;10.30;99.90;;;;;;5070354;28;20233;-79
2022/03/16 09:15:43;;;;;;;16.67;11.37;;;10.30;99.90;;;;;;5069759;28;20225;-79
2022/03/16 09:18:10;;;;;;;23.20;15.57;;;10.40;99.90;;;;;;5069267;28;20684;-79
2022/03/16 09:20:37;;;;;;;22.90;14.50;;;10.40;99.90;;;;;;5068510;28;20312;-79
2022/03/16 09:23:04;;;;;;;21.20;14.53;;;10.50;99.90;;;;;;5066845;28;20227;-79
2022/03/16 09:25:31;;;;;;;21.97;15.37;;;10.50;99.90;;;;;;5069654;28;20869;-79
2022/03/16 09:27:58;;;;;;;21.33;15.07;;;10.60;99.90;;;;;;5070438;28;20709;-79
2022/03/16 09:30:26;;;;;;;20.80;15.30;;;10.60;99.90;;;;;;5074145;28;20229;-79
2022/03/16 09:32:57;;;;;;;24.20;17.10;;;10.70;99.90;;;;;;5073599;28;20622;-79
2022/03/16 09:35:24;;;;;;;24.83;16.80;;;10.90;99.90;;;;;;5072845;28;20267;-79
2022/03/16 09:37:50;;;;;;;21.83;16.07;;;11.00;99.90;;;;;;5075369;28;20223;-79
2022/03/16 09:40:18;;;;;;;22.07;16.43;;;11.20;99.90;;;;;;5072753;28;20230;-81
2022/03/16 09:42:47;;;;;;;27.47;18.00;;;11.40;99.90;;;;;;5071625;28;20234;-79
2022/03/16 09:45:19;;;;;;;26.20;17.27;;;11.60;99.90;;;;;;5071842;28;20319;-79
2022/03/16 09:47:47;;;;;;;22.20;15.70;;;12.00;99.90;;;;;;5074164;28;20224;-79
2022/03/16 09:50:14;;;;;;;21.53;15.97;;;12.40;99.90;;;;;;5071690;28;20554;-79
2022/03/16 09:52:41;;;;;;;21.67;13.70;;;12.80;99.90;;;;;;5076107;28;20225;-79
2022/03/16 09:55:09;;;;;;;22.23;15.03;;;13.30;99.90;;;;;;5073325;28;20231;-79
2022/03/16 09:57:35;;;;;;;22.70;16.43;;;13.60;99.60;;;;;;5073288;28;20251;-78
2022/03/16 10:00:02;;;;;;;19.57;15.00;;;14.00;98.90;;;;;;5073913;28;20253;-79
2022/03/16 10:02:31;;;;;;;20.37;14.47;;;14.30;97.50;;;;;;5075976;28;20222;-79
2022/03/16 10:04:59;;;;;;;18.00;13.17;;;14.50;97.20;;;;;;5072540;28;20372;-79
2022/03/16 10:07:30;;;;;;;16.27;12.20;;;14.60;96.30;;;;;;5073704;28;20714;-81
2022/03/16 10:15:26;;;;;;;17.13;11.63;;;15.00;95.80;;;;;;5067272;28;21077;-80
2022/03/16 10:18:00;;;;;;;19.60;13.87;;;15.20;95.70;;;;;;5068293;28;20248;-80
2022/03/16 10:20:32;;;;;;;18.33;12.67;;;15.20;94.80;;;;;;5068914;28;20380;-80
2022/03/16 10:23:07;;;;;;;15.93;11.40;;;15.30;95.00;;;;;;5068757;28;20243;-79
2022/03/16 10:25:38;;;;;;;17.17;11.13;;;15.40;94.70;;;;;;5077538;28;20254;-79
2022/03/16 10:28:13;;;;;;;16.97;11.60;;;15.70;95.10;;;;;;5070545;28;20219;-79
2022/03/16 10:30:50;;;;;;;19.27;11.60;;;16.00;93.80;;;;;;5076027;28;20897;-80
2022/03/16 10:33:18;;;;;;;17.70;10.70;;;16.40;93.80;;;;;;5075740;28;20744;-79
2022/03/16 10:36:06;;;;;;;13.70;10.30;;;16.60;93.20;;;;;;5072411;28;20254;-80
2022/03/16 10:38:38;;;;;;;15.07;9.83;;;16.90;92.10;;;;;;5077502;28;20318;-79
2022/03/16 10:41:14;;;;;;;15.13;10.13;;;17.10;91.50;;;;;;5076659;28;20633;-80
2022/03/16 10:46:35;;;;;;;14.50;10.13;;;17.40;91.30;;;;;;5073086;28;20390;-80
2022/03/16 10:49:05;;;;;;;14.30;9.87;;;17.50;91.20;;;;;;5072651;28;20214;-80
2022/03/16 10:51:34;;;;;;;13.77;9.23;;;17.70;90.80;;;;;;5070623;28;20238;-79
2022/03/16 10:54:02;;;;;;;13.70;8.73;;;17.90;89.90;;;;;;5066744;28;20736;-80
2022/03/16 10:56:30;;;;;;;15.07;9.07;;;18.00;89.40;;;;;;5077533;28;20227;-79
2022/03/16 10:58:57;;;;;;;12.63;8.38;;;18.10;90.00;;;;;;5074653;28;20211;-79
2022/03/16 11:01:25;;;;;;;12.07;8.05;;;18.30;88.30;;;;;;5076558;28;20310;-79
2022/03/16 11:03:58;;;;;;;10.87;7.40;;;18.30;85.60;;;;;;5071846;28;20234;-80
2022/03/16 11:06:26;;;;;;;11.23;7.60;;;18.30;86.20;;;;;;5075122;28;20223;-80
2022/03/16 11:08:55;;;;;;;10.93;8.30;;;18.20;85.50;;;;;;5074098;28;20299;-78
2022/03/16 11:14:08;;;;;;;11.37;7.87;;;17.80;84.70;;;;;;5073064;28;20222;-80
2022/03/16 11:16:35;;;;;;;10.83;7.43;;;17.60;85.40;;;;;;5072214;28;20715;-80
2022/03/16 11:19:05;;;;;;;9.33;6.43;;;17.40;85.50;;;;;;5073065;28;20295;-79
2022/03/16 11:21:44;;;;;;;8.97;6.73;;;17.20;85.70;;;;;;5072133;28;20221;-79
2022/03/16 11:24:18;;;;;;;8.87;6.47;;;17.10;86.00;;;;;;5073051;28;20222;-79
2022/03/16 11:27:26;;;;;;;8.73;6.60;;;16.90;86.00;;;;;;5076296;28;20230;-79
2022/03/16 11:30:12;;;;;;;8.13;5.40;;;16.70;85.50;;;;;;5071582;28;20313;-79
2022/03/16 11:32:40;;;;;;;10.23;5.43;;;16.60;85.70;;;;;;5073640;28;20230;-79
2022/03/16 11:35:12;;;;;;;7.77;5.77;;;16.40;86.30;;;;;;5073234;28;20229;-80
2022/03/16 11:37:41;;;;;;;8.00;5.20;;;16.30;85.60;;;;;;5075657;28;20257;-79
2022/03/16 11:40:13;;;;;;;8.17;5.80;;;16.10;86.30;;;;;;5071991;28;20250;-80
2022/03/16 11:42:44;;;;;;;7.83;5.37;;;15.90;86.00;;;;;;5073023;28;20545;-79
2022/03/16 11:45:37;;;;;;;8.83;6.03;;;15.80;87.50;;;;;;5070174;28;20824;-80
2022/03/16 11:48:37;;;;;;;9.17;4.80;;;15.60;86.60;;;;;;5066772;28;20218;-80
2022/03/16 11:51:18;;;;;;;8.03;5.47;;;15.60;88.00;;;;;;5072311;28;20222;-80
2022/03/16 11:54:13;;;;;;;7.73;5.50;;;15.60;86.90;;;;;;5064849;28;20317;-79
2022/03/16 11:56:53;;;;;;;7.73;5.70;;;15.50;86.90;;;;;;5046778;28;20226;-80
2022/03/16 11:59:34;;;;;;;7.90;5.67;;;15.50;86.50;;;;;;5068643;28;20230;-79
2022/03/16 12:02:23;;;;;;;7.97;5.50;;;15.40;88.30;;;;;;5065157;28;20824;-79
2022/03/16 12:04:51;;;;;;;8.80;5.63;;;15.40;88.00;;;;;;5068148;28;20253;-79
2022/03/16 12:07:19;;;;;;;7.30;5.77;;;15.40;88.20;;;;;;5071798;28;20232;-79
2022/03/16 12:09:49;;;;;;;8.83;5.03;;;15.40;87.70;;;;;;5065185;28;20341;-79
2022/03/16 12:15:15;;;;;;;8.63;6.23;;;15.20;86.60;;;;;;5062774;28;20236;-79
2022/03/16 12:17:42;;;;;;;8.70;5.93;;;15.10;86.80;;;;;;5069950;28;20233;-80
2022/03/16 12:20:12;;;;;;;8.10;6.37;;;15.00;87.50;;;;;;5070353;28;20225;-80
2022/03/16 12:22:45;;;;;;;6.87;5.50;;;14.90;87.50;;;;;;5071079;28;20243;-80
2022/03/16 12:25:31;;;;;;;8.07;6.37;;;14.90;87.50;;;;;;5071474;28;20234;-80
2022/03/16 12:30:46;;;;;;;8.47;7.03;;;14.70;87.00;;;;;;5069376;28;20700;-80
2022/03/16 12:33:16;;;;;;;11.03;7.73;;;14.50;87.50;;;;;;5070348;28;20228;-79
2022/03/16 12:35:43;;;;;;;12.17;7.77;;;14.40;87.90;;;;;;5071604;28;20322;-80
2022/03/16 12:38:10;;;;;;;9.60;7.33;;;14.30;88.30;;;;;;5071109;28;20983;-79
2022/03/16 12:42:30;;;;;;;10.30;6.83;;;14.20;89.00;;;;;;5068864;28;20424;-80
2022/03/16 12:43:27;;;;;;;9.50;6.57;;;14.20;89.10;;;;;;5069756;28;20225;-80
2022/03/16 12:46:01;;;;;;;9.43;6.17;;;14.30;88.90;;;;;;5091371;28;20232;-81
2022/03/16 12:48:34;;;;;;;8.07;5.47;;;14.20;89.10;;;;;;5070266;28;20239;-80
2022/03/16 12:51:01;;;;;;;11.40;5.90;;;14.20;88.40;;;;;;5066252;28;20241;-80
2022/03/16 12:53:44;;;;;;;8.07;6.00;;;14.30;88.70;;;;;;5066857;28;20666;-80
2022/03/16 12:56:12;;;;;;;7.77;5.80;;;14.30;88.70;;;;;;5069631;28;20829;-80
2022/03/16 12:58:41;;;;;;;8.10;5.87;;;14.30;88.80;;;;;;5067836;28;20237;-80